Time;durP1;ratioP1;P1;durP2;ratioP2;P2;SDS_P1;SDS_P2;PMS_P1;PMS_P2;Temp;Humidity;BMP_temperature;BMP_pressure;BME280_temperature;BME280_humidity;BME280_pressure;Samples;Min_cycle;Max_cycle;Signal;HPM_P1;HPM_P2
2023/07/25 00:01:16;;;;;;;6.78;4.32;;;;;;;;;;5041316;28;20037;-62
2023/07/25 00:03:42;;;;;;;8.15;4.20;;;;;;;;;;5041513;28;20018;-54
2023/07/25 00:06:09;;;;;;;6.63;4.60;;;;;;;;;;5041093;28;20288;-52
2023/07/25 00:08:36;;;;;;;9.18;4.18;;;;;;;;;;5041239;28;20205;-58
2023/07/25 00:11:02;;;;;;;5.82;3.83;;;;;;;;;;5023166;28;20244;-52
2023/07/25 00:13:29;;;;;;;7.15;3.80;;;;;;;;;;5023549;28;20328;-51
2023/07/25 00:15:56;;;;;;;5.93;3.90;;;;;;;;;;5041041;28;20360;-57
2023/07/25 00:18:23;;;;;;;8.43;3.63;;;;;;;;;;5041240;28;20045;-58
2023/07/25 00:20:52;;;;;;;8.05;4.07;;;;;;;;;;5041028;28;20055;-56
2023/07/25 00:23:18;;;;;;;6.38;4.00;;;;;;;;;;5044196;28;20078;-59
2023/07/25 00:25:45;;;;;;;6.75;3.60;;;;;;;;;;5044438;28;20021;-55
2023/07/25 00:28:13;;;;;;;7.45;4.18;;;;;;;;;;5044662;28;20316;-54
2023/07/25 00:30:40;;;;;;;9.60;4.50;;;;;;;;;;5026530;28;20211;-52
2023/07/25 00:33:06;;;;;;;6.57;3.78;;;;;;;;;;5044669;28;20021;-56
2023/07/25 00:35:33;;;;;;;5.57;4.30;;;;;;;;;;5044210;28;20049;-58
2023/07/25 00:38:00;;;;;;;8.32;4.30;;;;;;;;;;5044290;28;20025;-58
2023/07/25 00:40:39;;;;;;;7.10;4.15;;;;;;;;;;5044272;28;20025;-53
2023/07/25 00:43:49;;;;;;;5.47;4.00;;;;;;;;;;5025272;28;20053;-52
2023/07/25 00:46:17;;;;;;;5.00;3.60;;;;;;;;;;5043784;28;20222;-53
2023/07/25 00:49:02;;;;;;;8.93;3.50;;;;;;;;;;5044887;28;20029;-58
2023/07/25 00:51:30;;;;;;;8.05;3.70;;;;;;;;;;5043966;28;20032;-54
2023/07/25 00:53:57;;;;;;;4.90;3.33;;;;;;;;;;5047861;28;20026;-58
2023/07/25 00:56:23;;;;;;;7.20;3.50;;;;;;;;;;5051239;28;20029;-56
2023/07/25 00:58:50;;;;;;;5.20;3.33;;;;;;;;;;5052629;28;20049;-52
2023/07/25 01:01:19;;;;;;;7.78;3.40;;;;;;;;;;5043030;28;20038;-52
2023/07/25 01:03:46;;;;;;;5.88;3.78;;;;;;;;;;5042951;28;20293;-57
2023/07/25 01:06:13;;;;;;;5.38;3.53;;;;;;;;;;5043910;28;20021;-54
2023/07/25 01:08:49;;;;;;;8.10;3.83;;;;;;;;;;5026157;28;20021;-55
2023/07/25 01:11:16;;;;;;;7.22;4.35;;;;;;;;;;5040257;28;20035;-50
2023/07/25 01:13:46;;;;;;;10.55;4.68;;;;;;;;;;5043083;28;20309;-47
2023/07/25 01:16:16;;;;;;;5.97;4.50;;;;;;;;;;5043394;28;20026;-48
2023/07/25 01:18:46;;;;;;;6.85;4.45;;;;;;;;;;5047153;28;20036;-48
2023/07/25 01:21:15;;;;;;;9.55;5.00;;;;;;;;;;5049178;28;20101;-58
2023/07/25 01:23:42;;;;;;;9.85;5.60;;;;;;;;;;5043601;28;20048;-52
2023/07/25 01:26:09;;;;;;;8.48;4.65;;;;;;;;;;5045249;28;20108;-49
2023/07/25 01:28:37;;;;;;;6.50;3.83;;;;;;;;;;5044214;28;20036;-53
2023/07/25 01:31:04;;;;;;;7.10;3.65;;;;;;;;;;5043667;28;20040;-50
2023/07/25 01:33:32;;;;;;;5.80;3.90;;;;;;;;;;5043514;28;20029;-55
2023/07/25 01:36:00;;;;;;;8.02;3.90;;;;;;;;;;5042668;28;20025;-53
2023/07/25 01:38:27;;;;;;;6.35;3.72;;;;;;;;;;5043238;28;20070;-51
2023/07/25 01:40:53;;;;;;;5.93;3.63;;;;;;;;;;5043153;28;20036;-51
2023/07/25 01:43:20;;;;;;;6.07;3.50;;;;;;;;;;5043260;28;20033;-55
2023/07/25 01:45:46;;;;;;;4.68;3.17;;;;;;;;;;5042462;28;20215;-54
2023/07/25 01:48:13;;;;;;;6.80;3.10;;;;;;;;;;5043024;28;20021;-48
2023/07/25 01:50:40;;;;;;;6.25;3.20;;;;;;;;;;5044275;28;20363;-54
2023/07/25 01:53:06;;;;;;;6.15;3.40;;;;;;;;;;5043604;28;20025;-61
2023/07/25 01:55:39;;;;;;;7.63;3.53;;;;;;;;;;5051603;28;20328;-59
2023/07/25 01:58:06;;;;;;;6.63;3.47;;;;;;;;;;5055523;28;20045;-57
2023/07/25 02:00:32;;;;;;;5.28;3.20;;;;;;;;;;5044280;28;20071;-61
2023/07/25 02:02:59;;;;;;;5.68;3.35;;;;;;;;;;5043883;28;20036;-60
2023/07/25 02:05:26;;;;;;;6.05;3.08;;;;;;;;;;5044923;28;20259;-57
2023/07/25 02:07:52;;;;;;;6.40;3.25;;;;;;;;;;5047932;28;20017;-55
2023/07/25 02:10:29;;;;;;;6.47;3.30;;;;;;;;;;5057258;28;20207;-62
2023/07/25 02:12:59;;;;;;;4.80;3.08;;;;;;;;;;5042757;27;20056;-55
2023/07/25 02:15:26;;;;;;;5.03;2.95;;;;;;;;;;5046513;28;20037;-59
2023/07/25 02:17:53;;;;;;;5.43;2.90;;;;;;;;;;5055519;28;20022;-53
2023/07/25 02:20:22;;;;;;;4.22;3.00;;;;;;;;;;5025510;28;20032;-51
2023/07/25 02:23:12;;;;;;;5.75;3.00;;;;;;;;;;5043898;28;20042;-60
2023/07/25 02:25:39;;;;;;;6.07;3.10;;;;;;;;;;5048116;28;20028;-55
2023/07/25 02:28:06;;;;;;;6.93;3.30;;;;;;;;;;5043454;28;20025;-55
2023/07/25 02:30:32;;;;;;;7.88;3.00;;;;;;;;;;5048365;28;20040;-52
2023/07/25 02:33:02;;;;;;;6.40;3.30;;;;;;;;;;5049684;28;20028;-67
2023/07/25 02:35:29;;;;;;;6.60;3.17;;;;;;;;;;5053437;28;20104;-56
2023/07/25 02:38:16;;;;;;;5.22;3.08;;;;;;;;;;5054720;28;20057;-58
2023/07/25 02:40:43;;;;;;;6.60;3.40;;;;;;;;;;5059758;28;20110;-58
2023/07/25 02:43:13;;;;;;;5.50;3.30;;;;;;;;;;5041351;28;20233;-51
2023/07/25 02:45:49;;;;;;;7.13;3.28;;;;;;;;;;5041356;28;20026;-57
2023/07/25 02:48:16;;;;;;;10.30;3.08;;;;;;;;;;5042487;28;20029;-57
2023/07/25 02:50:43;;;;;;;6.95;3.10;;;;;;;;;;5025276;28;20260;-58
2023/07/25 02:53:12;;;;;;;7.45;3.55;;;;;;;;;;5045865;28;20062;-53
2023/07/25 02:55:39;;;;;;;5.70;3.65;;;;;;;;;;5037949;28;20096;-55
2023/07/25 02:58:08;;;;;;;6.07;3.50;;;;;;;;;;5054384;27;20100;-58
2023/07/25 03:00:36;;;;;;;7.75;3.70;;;;;;;;;;5126010;27;20036;-55
2023/07/25 03:03:13;;;;;;;10.20;3.70;;;;;;;;;;5120271;28;20087;-54
2023/07/25 03:05:46;;;;;;;5.90;3.88;;;;;;;;;;5099904;28;20311;-58
2023/07/25 03:08:12;;;;;;;6.88;4.82;;;;;;;;;;5127879;27;20103;-55
2023/07/25 03:10:57;;;;;;;9.95;4.60;;;;;;;;;;5137228;27;20020;-54
2023/07/25 03:13:24;;;;;;;10.90;4.35;;;;;;;;;;5105488;28;20211;-55
2023/07/25 03:15:56;;;;;;;6.18;4.32;;;;;;;;;;5106332;28;20028;-57
2023/07/25 03:18:27;;;;;;;7.70;4.43;;;;;;;;;;5110332;27;20128;-59
2023/07/25 03:20:57;;;;;;;6.43;4.33;;;;;;;;;;5136024;27;20023;-54
2023/07/25 03:23:24;;;;;;;7.10;4.15;;;;;;;;;;5101936;27;20052;-55
2023/07/25 03:25:50;;;;;;;5.35;3.92;;;;;;;;;;5132876;27;20051;-55
2023/07/25 03:28:17;;;;;;;5.82;3.80;;;;;;;;;;5118789;27;20031;-59
2023/07/25 03:30:47;;;;;;;11.65;3.92;;;;;;;;;;5136473;27;20035;-54
2023/07/25 03:33:13;;;;;;;8.27;5.15;;;;;;;;;;5108659;27;20024;-56
2023/07/25 03:35:41;;;;;;;10.82;4.60;;;;;;;;;;5128958;27;20035;-54
2023/07/25 03:38:08;;;;;;;7.45;4.07;;;;;;;;;;5125626;27;20020;-56
2023/07/25 03:40:35;;;;;;;6.95;4.22;;;;;;;;;;5101473;28;20042;-55
2023/07/25 03:43:15;;;;;;;10.10;4.00;;;;;;;;;;5121959;27;20073;-55
2023/07/25 03:45:49;;;;;;;5.78;3.45;;;;;;;;;;5123001;27;20028;-55
2023/07/25 03:48:16;;;;;;;6.82;3.83;;;;;;;;;;5106736;28;20399;-57
2023/07/25 03:50:54;;;;;;;7.63;3.70;;;;;;;;;;5105614;28;20032;-63
2023/07/25 03:53:22;;;;;;;6.97;3.70;;;;;;;;;;5093890;28;20028;-57
2023/07/25 03:55:54;;;;;;;6.13;3.80;;;;;;;;;;5116877;28;20398;-54
2023/07/25 03:58:21;;;;;;;7.93;4.50;;;;;;;;;;5113446;27;20049;-58
2023/07/25 04:00:53;;;;;;;5.80;3.45;;;;;;;;;;5041457;28;20052;-60
2023/07/25 04:03:25;;;;;;;;;;;;;;;;;;5043900;28;20029;-58
2023/07/25 04:05:52;;;;;;;8.40;3.60;;;;;;;;;;5041971;28;19905;-57
2023/07/25 04:08:21;;;;;;;6.28;3.40;;;;;;;;;;5047127;28;20044;-53
2023/07/25 04:10:51;;;;;;;7.38;3.38;;;;;;;;;;5029384;28;20095;-55
2023/07/25 04:13:17;;;;;;;7.63;3.70;;;;;;;;;;5040407;28;20033;-59
2023/07/25 04:15:44;;;;;;;6.00;3.47;;;;;;;;;;5040882;28;20136;-55
2023/07/25 04:18:11;;;;;;;7.43;2.92;;;;;;;;;;5041129;28;20042;-60
2023/07/25 04:20:37;;;;;;;4.70;3.03;;;;;;;;;;5040813;28;20021;-57
2023/07/25 04:23:04;;;;;;;6.28;3.30;;;;;;;;;;5040981;28;20314;-54
2023/07/25 04:25:31;;;;;;;7.70;3.25;;;;;;;;;;5040607;28;20038;-57
2023/07/25 04:27:57;;;;;;;6.20;3.20;;;;;;;;;;5040994;28;20018;-56
2023/07/25 04:30:24;;;;;;;5.47;3.00;;;;;;;;;;5040780;28;20052;-55
2023/07/25 04:32:50;;;;;;;4.80;2.90;;;;;;;;;;5040697;28;20238;-53
2023/07/25 04:35:17;;;;;;;5.28;2.83;;;;;;;;;;5040750;28;20047;-58
2023/07/25 04:37:44;;;;;;;6.07;3.10;;;;;;;;;;5040795;28;20026;-54
2023/07/25 04:40:11;;;;;;;7.38;2.97;;;;;;;;;;5040465;28;20044;-54
2023/07/25 04:42:37;;;;;;;6.13;2.88;;;;;;;;;;5040661;28;20082;-59
2023/07/25 04:45:05;;;;;;;4.75;3.20;;;;;;;;;;5040557;28;20090;-60
2023/07/25 04:47:32;;;;;;;4.63;2.90;;;;;;;;;;5040477;28;20209;-60
2023/07/25 04:50:01;;;;;;;5.43;2.95;;;;;;;;;;5040581;28;20014;-59
2023/07/25 04:52:28;;;;;;;6.47;2.58;;;;;;;;;;5040579;28;20033;-55
2023/07/25 04:54:57;;;;;;;6.78;2.95;;;;;;;;;;5040184;28;20030;-55
2023/07/25 04:57:24;;;;;;;7.40;3.03;;;;;;;;;;5040041;28;20021;-53
2023/07/25 04:59:51;;;;;;;7.07;3.20;;;;;;;;;;5039776;28;20240;-55
2023/07/25 05:02:18;;;;;;;5.10;2.80;;;;;;;;;;5040142;28;20029;-58
2023/07/25 05:04:45;;;;;;;6.70;2.70;;;;;;;;;;5040229;28;20107;-55
2023/07/25 05:07:11;;;;;;;6.78;2.72;;;;;;;;;;5040197;28;20033;-56
2023/07/25 05:09:38;;;;;;;4.75;2.80;;;;;;;;;;5046253;28;20033;-56
2023/07/25 05:12:05;;;;;;;6.65;2.70;;;;;;;;;;5054637;28;20021;-53
2023/07/25 05:14:32;;;;;;;7.10;2.83;;;;;;;;;;5063549;28;20048;-56
2023/07/25 05:16:58;;;;;;;8.30;3.20;;;;;;;;;;5063277;28;20043;-58
2023/07/25 05:19:25;;;;;;;7.43;3.22;;;;;;;;;;5063664;28;20025;-57
2023/07/25 05:21:53;;;;;;;5.53;2.75;;;;;;;;;;5063276;28;20037;-60
2023/07/25 05:24:20;;;;;;;6.05;3.00;;;;;;;;;;5063246;28;20063;-58
2023/07/25 05:26:46;;;;;;;4.28;2.67;;;;;;;;;;5063208;27;20040;-59
2023/07/25 05:29:13;;;;;;;7.20;2.92;;;;;;;;;;5063202;28;20036;-55
2023/07/25 05:31:40;;;;;;;3.45;2.60;;;;;;;;;;5063158;28;20229;-58
2023/07/25 05:34:07;;;;;;;6.43;2.78;;;;;;;;;;5063762;28;20118;-55
2023/07/25 05:36:34;;;;;;;7.22;2.67;;;;;;;;;;5063122;28;20029;-57
2023/07/25 05:39:01;;;;;;;5.72;2.90;;;;;;;;;;5063439;28;20040;-60
2023/07/25 05:41:27;;;;;;;5.57;3.00;;;;;;;;;;5063121;28;20259;-62
2023/07/25 05:43:54;;;;;;;7.78;2.80;;;;;;;;;;5063662;28;20297;-59
2023/07/25 05:46:21;;;;;;;4.90;2.78;;;;;;;;;;5062965;28;20280;-55
2023/07/25 05:48:47;;;;;;;5.28;2.83;;;;;;;;;;5063591;28;20354;-57
2023/07/25 05:51:14;;;;;;;4.30;2.72;;;;;;;;;;5063232;28;20078;-54
2023/07/25 05:53:41;;;;;;;7.18;3.33;;;;;;;;;;5063209;28;20025;-53
2023/07/25 05:56:07;;;;;;;4.18;2.22;;;;;;;;;;5062895;28;20092;-57
2023/07/25 05:58:34;;;;;;;7.85;2.78;;;;;;;;;;5063073;28;20049;-56
2023/07/25 06:01:01;;;;;;;6.15;2.97;;;;;;;;;;5062742;28;20033;-56
2023/07/25 06:03:28;;;;;;;4.03;2.67;;;;;;;;;;5063206;28;20017;-55
2023/07/25 06:05:54;;;;;;;6.88;2.92;;;;;;;;;;5062681;28;20085;-60
2023/07/25 06:08:21;;;;;;;5.93;2.97;;;;;;;;;;5062856;28;20024;-54
2023/07/25 06:10:47;;;;;;;6.47;2.60;;;;;;;;;;5062455;28;20025;-55
2023/07/25 06:13:14;;;;;;;6.47;2.63;;;;;;;;;;5063041;28;20048;-57
2023/07/25 06:15:41;;;;;;;7.55;2.78;;;;;;;;;;5062608;28;20041;-56
2023/07/25 06:18:07;;;;;;;6.43;2.67;;;;;;;;;;5051826;28;20084;-56
2023/07/25 06:20:34;;;;;;;5.53;2.60;;;;;;;;;;5060148;28;20044;-58
2023/07/25 06:23:02;;;;;;;4.97;2.80;;;;;;;;;;5062627;28;20365;-59
2023/07/25 06:25:29;;;;;;;6.47;2.92;;;;;;;;;;5062246;28;20080;-57
2023/07/25 06:27:55;;;;;;;4.53;2.60;;;;;;;;;;5062584;28;20201;-61
2023/07/25 06:30:22;;;;;;;5.78;3.40;;;;;;;;;;5062365;28;20366;-55
2023/07/25 06:32:49;;;;;;;6.03;2.70;;;;;;;;;;5062341;28;20028;-56
2023/07/25 06:35:15;;;;;;;6.90;3.13;;;;;;;;;;5062304;28;20096;-55
2023/07/25 06:37:42;;;;;;;6.03;3.05;;;;;;;;;;5062436;28;20029;-55
2023/07/25 06:40:09;;;;;;;4.18;2.70;;;;;;;;;;5061992;28;20369;-60
2023/07/25 06:42:35;;;;;;;7.05;3.38;;;;;;;;;;5062259;28;20096;-56
2023/07/25 06:45:02;;;;;;;4.57;2.60;;;;;;;;;;5062079;28;20036;-54
2023/07/25 06:47:29;;;;;;;6.22;3.00;;;;;;;;;;5062057;28;20250;-54
2023/07/25 06:49:56;;;;;;;7.20;2.90;;;;;;;;;;5062256;28;20086;-55
2023/07/25 06:52:22;;;;;;;7.97;3.03;;;;;;;;;;5062067;28;20033;-55
2023/07/25 06:54:49;;;;;;;7.25;2.97;;;;;;;;;;5061766;28;20017;-56
2023/07/25 06:57:16;;;;;;;7.32;2.95;;;;;;;;;;5061925;28;20078;-59
2023/07/25 06:59:42;;;;;;;6.88;3.35;;;;;;;;;;5061779;28;20116;-58
2023/07/25 07:02:09;;;;;;;7.65;2.92;;;;;;;;;;5061755;28;20021;-56
2023/07/25 07:04:36;;;;;;;8.07;2.90;;;;;;;;;;5061757;28;20078;-55
2023/07/25 07:07:03;;;;;;;5.40;3.22;;;;;;;;;;5061699;28;20100;-54
2023/07/25 07:09:31;;;;;;;5.40;3.00;;;;;;;;;;5061595;28;20267;-57
2023/07/25 07:11:58;;;;;;;8.25;2.75;;;;;;;;;;5052936;28;20032;-55
2023/07/25 07:14:25;;;;;;;7.60;2.80;;;;;;;;;;5041598;28;20039;-54
2023/07/25 07:16:52;;;;;;;7.70;3.25;;;;;;;;;;5041488;28;20021;-56
2023/07/25 07:19:18;;;;;;;6.30;2.92;;;;;;;;;;5041782;28;20065;-56
2023/07/25 07:21:45;;;;;;;6.43;2.95;;;;;;;;;;5041432;28;20033;-55
2023/07/25 07:24:12;;;;;;;7.60;2.75;;;;;;;;;;5041481;28;20041;-53
2023/07/25 07:26:38;;;;;;;5.13;2.90;;;;;;;;;;5041643;28;20033;-55
2023/07/25 07:29:05;;;;;;;5.25;2.58;;;;;;;;;;5041854;28;20029;-55
2023/07/25 07:31:31;;;;;;;6.82;2.63;;;;;;;;;;5050653;28;20021;-54
2023/07/25 07:34:15;;;;;;;5.35;2.72;;;;;;;;;;5041702;28;20056;-54
2023/07/25 07:36:42;;;;;;;8.13;2.92;;;;;;;;;;5048964;28;20032;-57
2023/07/25 07:39:08;;;;;;;5.78;3.20;;;;;;;;;;5045400;28;20038;-64
2023/07/25 07:41:39;;;;;;;5.35;2.67;;;;;;;;;;5041149;28;20091;-54
2023/07/25 07:44:06;;;;;;;7.82;2.75;;;;;;;;;;5041738;28;20035;-54
2023/07/25 07:46:33;;;;;;;5.93;2.92;;;;;;;;;;5041085;28;20037;-55
2023/07/25 07:49:00;;;;;;;4.72;3.17;;;;;;;;;;5041669;28;20021;-54
2023/07/25 07:51:27;;;;;;;8.82;3.22;;;;;;;;;;5041209;28;20078;-55
2023/07/25 07:53:53;;;;;;;5.63;2.80;;;;;;;;;;5041424;28;20051;-54
2023/07/25 07:56:20;;;;;;;6.55;3.00;;;;;;;;;;5041006;28;20028;-59
2023/07/25 07:58:47;;;;;;;6.68;3.08;;;;;;;;;;5040973;28;20067;-55
2023/07/25 08:01:15;;;;;;;5.53;2.80;;;;;;;;;;5040817;28;20038;-56
2023/07/25 08:03:41;;;;;;;5.88;3.20;;;;;;;;;;5041428;28;20213;-57
2023/07/25 08:06:08;;;;;;;5.25;3.08;;;;;;;;;;5040907;28;20034;-58
2023/07/25 08:08:35;;;;;;;6.35;2.90;;;;;;;;;;5041094;28;20112;-59
2023/07/25 08:11:01;;;;;;;7.38;3.20;;;;;;;;;;5040956;28;20049;-55
2023/07/25 08:13:28;;;;;;;6.03;3.25;;;;;;;;;;5041151;28;20044;-55
2023/07/25 08:15:55;;;;;;;7.03;3.00;;;;;;;;;;5040724;28;20353;-54
2023/07/25 08:18:21;;;;;;;9.10;3.10;;;;;;;;;;5041424;28;20031;-54
2023/07/25 08:20:48;;;;;;;7.72;3.15;;;;;;;;;;5040725;28;20096;-56
2023/07/25 08:23:15;;;;;;;5.93;3.08;;;;;;;;;;5040764;28;20038;-55
2023/07/25 08:25:41;;;;;;;7.40;3.20;;;;;;;;;;5040835;28;20018;-54
2023/07/25 08:28:08;;;;;;;7.70;3.17;;;;;;;;;;5041002;28;20074;-54
2023/07/25 08:30:35;;;;;;;8.88;3.35;;;;;;;;;;5040575;28;20117;-55
2023/07/25 08:33:01;;;;;;;5.38;3.20;;;;;;;;;;5040912;28;20187;-55
2023/07/25 08:35:28;;;;;;;7.20;3.47;;;;;;;;;;5040696;28;20041;-57
2023/07/25 08:37:55;;;;;;;6.18;3.40;;;;;;;;;;5040711;28;20116;-59
2023/07/25 08:40:21;;;;;;;7.07;3.33;;;;;;;;;;5040543;28;20060;-60
2023/07/25 08:42:50;;;;;;;9.38;3.63;;;;;;;;;;5042226;28;20078;-54
2023/07/25 08:45:17;;;;;;;7.10;3.80;;;;;;;;;;5043918;28;20034;-58
2023/07/25 08:47:46;;;;;;;11.77;4.30;;;;;;;;;;5044191;28;20018;-58
2023/07/25 08:50:15;;;;;;;9.77;3.85;;;;;;;;;;5043832;28;20030;-57
2023/07/25 08:52:46;;;;;;;8.85;4.20;;;;;;;;;;5043812;28;20048;-60
2023/07/25 08:55:13;;;;;;;8.00;4.05;;;;;;;;;;5043783;28;20033;-57
2023/07/25 08:57:41;;;;;;;10.65;4.35;;;;;;;;;;5043798;28;20029;-55
2023/07/25 09:00:08;;;;;;;9.43;3.92;;;;;;;;;;5043403;28;20098;-54
2023/07/25 09:02:35;;;;;;;8.38;4.18;;;;;;;;;;5043895;28;20029;-55
2023/07/25 09:05:02;;;;;;;9.82;4.35;;;;;;;;;;5043728;28;20030;-54
2023/07/25 09:07:29;;;;;;;11.80;4.45;;;;;;;;;;5043603;28;20103;-57
2023/07/25 09:09:56;;;;;;;7.75;4.22;;;;;;;;;;5043651;28;20060;-56
2023/07/25 09:12:23;;;;;;;11.38;4.20;;;;;;;;;;5043683;28;20317;-55
2023/07/25 09:14:50;;;;;;;8.13;4.07;;;;;;;;;;5043441;28;20080;-57
2023/07/25 09:17:16;;;;;;;8.57;3.75;;;;;;;;;;5043578;28;20037;-55
2023/07/25 09:19:43;;;;;;;9.05;3.92;;;;;;;;;;5043505;28;20101;-54
2023/07/25 09:22:29;;;;;;;9.70;4.10;;;;;;;;;;5043263;28;20080;-58
2023/07/25 09:24:56;;;;;;;9.02;4.28;;;;;;;;;;5043309;28;20029;-63
2023/07/25 09:27:23;;;;;;;8.57;4.22;;;;;;;;;;5043220;28;20278;-64
2023/07/25 09:29:51;;;;;;;8.02;4.30;;;;;;;;;;5043355;28;20250;-56
2023/07/25 09:32:21;;;;;;;9.40;4.00;;;;;;;;;;5043340;28;20034;-55
2023/07/25 09:34:54;;;;;;;8.48;3.78;;;;;;;;;;5042995;28;20066;-63
2023/07/25 09:37:21;;;;;;;9.73;3.80;;;;;;;;;;5043225;28;20097;-54
2023/07/25 09:39:47;;;;;;;8.18;3.83;;;;;;;;;;5043084;28;20032;-56
2023/07/25 09:42:14;;;;;;;7.70;4.32;;;;;;;;;;5042977;28;20092;-55
2023/07/25 09:44:47;;;;;;;10.82;3.90;;;;;;;;;;5043163;28;20030;-55
2023/07/25 09:47:14;;;;;;;8.93;4.10;;;;;;;;;;5042996;28;20425;-56
2023/07/25 09:49:48;;;;;;;10.38;4.07;;;;;;;;;;5042891;28;20048;-55
2023/07/25 09:52:15;;;;;;;8.68;3.92;;;;;;;;;;5042951;28;20194;-54
2023/07/25 09:54:42;;;;;;;7.82;3.90;;;;;;;;;;5042090;28;20034;-52
2023/07/25 09:57:09;;;;;;;9.13;4.30;;;;;;;;;;5042867;28;20033;-55
2023/07/25 09:59:36;;;;;;;7.53;3.70;;;;;;;;;;5042764;28;20080;-54
2023/07/25 10:02:03;;;;;;;8.00;3.97;;;;;;;;;;5042657;28;20034;-54
2023/07/25 10:04:30;;;;;;;8.00;3.47;;;;;;;;;;5042678;28;20036;-63
2023/07/25 10:07:01;;;;;;;6.65;3.60;;;;;;;;;;5042614;28;20054;-54
2023/07/25 10:09:27;;;;;;;9.52;3.55;;;;;;;;;;5042600;28;20033;-56
2023/07/25 10:11:54;;;;;;;8.00;3.60;;;;;;;;;;5042539;28;20089;-53
2023/07/25 10:14:21;;;;;;;7.38;3.65;;;;;;;;;;5042766;28;20044;-54
2023/07/25 10:16:48;;;;;;;8.55;3.75;;;;;;;;;;5042431;28;20031;-50
2023/07/25 10:19:14;;;;;;;9.60;3.95;;;;;;;;;;5042441;28;20040;-54
2023/07/25 10:21:48;;;;;;;9.90;3.30;;;;;;;;;;5042545;28;20017;-57
2023/07/25 10:24:15;;;;;;;7.15;3.30;;;;;;;;;;5042388;28;20036;-52
2023/07/25 10:26:57;;;;;;;9.23;3.60;;;;;;;;;;5042381;28;20021;-51
2023/07/25 10:29:41;;;;;;;8.30;3.42;;;;;;;;;;5024811;28;20048;-52
2023/07/25 10:32:08;;;;;;;7.70;3.13;;;;;;;;;;5042523;28;20333;-53
2023/07/25 10:34:44;;;;;;;7.50;3.40;;;;;;;;;;5042396;28;20065;-56
2023/07/25 10:37:22;;;;;;;8.85;3.05;;;;;;;;;;5042248;28;20030;-53
2023/07/25 10:40:02;;;;;;;8.32;3.95;;;;;;;;;;5042189;28;20048;-58
2023/07/25 10:42:45;;;;;;;11.18;3.72;;;;;;;;;;5042165;28;20298;-52
2023/07/25 10:45:20;;;;;;;8.40;3.25;;;;;;;;;;5042187;28;20203;-57
2023/07/25 10:47:49;;;;;;;8.63;3.40;;;;;;;;;;5042290;28;20056;-53
2023/07/25 10:50:19;;;;;;;5.38;3.20;;;;;;;;;;5042035;28;20060;-53
2023/07/25 10:52:47;;;;;;;8.50;3.30;;;;;;;;;;5041938;28;20033;-52
2023/07/25 10:55:15;;;;;;;7.20;3.42;;;;;;;;;;5041835;28;20057;-53
2023/07/25 10:57:41;;;;;;;8.02;3.25;;;;;;;;;;5041952;28;20041;-59
2023/07/25 11:00:09;;;;;;;9.18;3.60;;;;;;;;;;5041517;28;20053;-54
2023/07/25 11:02:36;;;;;;;7.20;3.05;;;;;;;;;;5041996;28;20048;-55
2023/07/25 11:05:14;;;;;;;11.27;3.95;;;;;;;;;;5041706;28;20053;-55
2023/07/25 11:07:49;;;;;;;12.95;3.92;;;;;;;;;;5041888;28;20029;-56
2023/07/25 11:10:20;;;;;;;10.60;4.07;;;;;;;;;;5042338;28;20203;-55
2023/07/25 11:12:50;;;;;;;8.77;4.45;;;;;;;;;;5041823;28;20033;-54
2023/07/25 11:15:17;;;;;;;7.63;4.00;;;;;;;;;;5041574;28;20225;-55
2023/07/25 11:17:44;;;;;;;12.63;4.97;;;;;;;;;;5041695;28;20082;-58
2023/07/25 11:20:28;;;;;;;14.10;5.07;;;;;;;;;;5041367;28;20067;-62
2023/07/25 11:22:55;;;;;;;10.43;4.85;;;;;;;;;;5044053;28;20033;-59
2023/07/25 11:25:22;;;;;;;9.00;4.35;;;;;;;;;;5048226;28;20330;-55
2023/07/25 11:27:48;;;;;;;8.75;3.97;;;;;;;;;;5041577;28;20290;-55
2023/07/25 11:30:19;;;;;;;9.52;3.80;;;;;;;;;;5041520;28;20036;-54
2023/07/25 11:32:50;;;;;;;9.32;4.47;;;;;;;;;;5041318;28;20021;-57
2023/07/25 11:35:16;;;;;;;9.80;4.65;;;;;;;;;;5041303;28;20041;-54
2023/07/25 11:37:46;;;;;;;9.63;4.57;;;;;;;;;;5041020;28;20025;-50
2023/07/25 11:40:17;;;;;;;9.18;4.13;;;;;;;;;;5040931;28;20029;-56
2023/07/25 11:42:44;;;;;;;6.90;4.35;;;;;;;;;;5041101;28;20033;-54
2023/07/25 11:45:11;;;;;;;12.30;4.20;;;;;;;;;;5041099;28;20025;-60
2023/07/25 11:47:39;;;;;;;9.55;4.43;;;;;;;;;;5041119;28;20298;-58
2023/07/25 11:50:08;;;;;;;8.02;3.58;;;;;;;;;;5040919;28;20033;-61
2023/07/25 11:52:35;;;;;;;10.07;4.25;;;;;;;;;;5041433;28;20021;-52
2023/07/25 11:55:02;;;;;;;10.10;3.72;;;;;;;;;;5047776;28;20071;-55
2023/07/25 11:57:29;;;;;;;5.72;3.30;;;;;;;;;;5061032;28;20386;-55
2023/07/25 11:59:56;;;;;;;6.93;3.28;;;;;;;;;;5060798;28;20359;-59
2023/07/25 12:02:24;;;;;;;9.57;4.03;;;;;;;;;;5060798;28;20029;-53
2023/07/25 12:04:51;;;;;;;9.00;3.63;;;;;;;;;;5060831;28;20206;-54
2023/07/25 12:07:18;;;;;;;8.13;4.25;;;;;;;;;;5061005;28;20021;-57
2023/07/25 12:09:52;;;;;;;9.05;4.53;;;;;;;;;;5060539;28;20025;-56
2023/07/25 12:12:19;;;;;;;10.55;4.45;;;;;;;;;;5060637;28;20302;-54
2023/07/25 12:15:00;;;;;;;9.10;4.03;;;;;;;;;;5060498;28;20032;-56
2023/07/25 12:17:43;;;;;;;8.88;4.20;;;;;;;;;;5060252;28;20134;-57
2023/07/25 12:20:19;;;;;;;8.63;4.43;;;;;;;;;;5060547;28;20053;-63
2023/07/25 12:22:47;;;;;;;11.32;4.80;;;;;;;;;;5060635;28;20104;-62
2023/07/25 12:25:18;;;;;;;10.73;6.07;;;;;;;;;;5060609;28;20029;-58
2023/07/25 12:27:48;;;;;;;8.98;6.30;;;;;;;;;;5044131;28;20021;-57
2023/07/25 12:30:15;;;;;;;10.95;4.72;;;;;;;;;;5040801;28;20234;-59
2023/07/25 12:32:42;;;;;;;9.25;4.38;;;;;;;;;;5040964;28;20214;-59
2023/07/25 12:35:10;;;;;;;13.38;4.78;;;;;;;;;;5040644;28;20097;-58
2023/07/25 12:37:37;;;;;;;9.05;4.90;;;;;;;;;;5040858;28;20036;-57
2023/07/25 12:40:04;;;;;;;10.20;4.95;;;;;;;;;;5050603;27;20045;-55
2023/07/25 12:42:33;;;;;;;12.27;4.40;;;;;;;;;;5040601;28;20029;-58
2023/07/25 12:45:05;;;;;;;10.02;4.05;;;;;;;;;;5040870;28;20086;-54
2023/07/25 12:47:32;;;;;;;7.30;4.18;;;;;;;;;;5040264;28;20213;-67
2023/07/25 12:50:16;;;;;;;7.43;4.03;;;;;;;;;;5040804;28;20039;-60
2023/07/25 12:52:47;;;;;;;9.35;3.88;;;;;;;;;;5040694;28;20200;-61
2023/07/25 12:55:14;;;;;;;9.05;4.20;;;;;;;;;;5040933;28;20041;-54
2023/07/25 12:58:10;;;;;;;;;;;;;;;;;;;;;
2023/07/25 13:00:37;;;;;;;8.48;3.78;;;;;;;;;;5103865;28;20063;-55
2023/07/25 13:03:04;;;;;;;5.88;3.53;;;;;;;;;;5086217;28;20030;-54
2023/07/25 13:05:31;;;;;;;10.45;3.90;;;;;;;;;;5029883;28;20034;-56
2023/07/25 13:07:58;;;;;;;9.90;4.05;;;;;;;;;;5021151;28;20044;-54
2023/07/25 13:10:29;;;;;;;7.53;3.70;;;;;;;;;;5020731;28;20064;-55
2023/07/25 13:12:55;;;;;;;5.30;3.45;;;;;;;;;;5024467;28;20040;-56
2023/07/25 13:15:25;;;;;;;6.97;3.42;;;;;;;;;;5031626;28;20029;-55
2023/07/25 13:17:52;;;;;;;8.38;3.80;;;;;;;;;;5040541;28;20234;-55
2023/07/25 13:20:22;;;;;;;4.97;3.22;;;;;;;;;;5040521;28;20076;-58
2023/07/25 13:22:50;;;;;;;7.10;3.35;;;;;;;;;;5039874;28;20021;-54
2023/07/25 13:25:22;;;;;;;7.10;3.88;;;;;;;;;;5039751;28;20042;-57
2023/07/25 13:27:49;;;;;;;6.68;3.38;;;;;;;;;;5039775;28;20029;-58
2023/07/25 13:30:16;;;;;;;7.10;3.38;;;;;;;;;;5041960;28;20038;-54
2023/07/25 13:32:42;;;;;;;7.53;3.78;;;;;;;;;;5043210;28;20044;-55
2023/07/25 13:35:09;;;;;;;5.65;2.78;;;;;;;;;;5043721;28;20255;-56
2023/07/25 13:37:36;;;;;;;7.13;3.58;;;;;;;;;;5043270;28;20082;-55
2023/07/25 13:40:03;;;;;;;10.13;3.80;;;;;;;;;;5042865;28;20048;-53
2023/07/25 13:42:32;;;;;;;6.78;3.50;;;;;;;;;;5043158;28;20333;-53
2023/07/25 13:44:59;;;;;;;5.80;3.50;;;;;;;;;;5043476;28;20024;-53
2023/07/25 13:47:25;;;;;;;7.07;3.60;;;;;;;;;;5043038;28;20052;-55
2023/07/25 13:49:52;;;;;;;9.63;3.83;;;;;;;;;;5043136;28;20029;-54
2023/07/25 13:52:19;;;;;;;6.13;3.60;;;;;;;;;;5043006;28;20070;-59
2023/07/25 13:54:45;;;;;;;6.80;3.65;;;;;;;;;;5036677;28;20025;-52
2023/07/25 13:57:12;;;;;;;6.10;4.00;;;;;;;;;;5027244;28;20046;-61
2023/07/25 13:59:39;;;;;;;8.32;3.92;;;;;;;;;;5037723;28;20079;-53
2023/07/25 14:02:05;;;;;;;8.70;3.95;;;;;;;;;;5042614;28;20344;-55
2023/07/25 14:04:32;;;;;;;7.20;4.20;;;;;;;;;;5043307;28;20071;-54
2023/07/25 14:06:59;;;;;;;7.80;5.00;;;;;;;;;;5044399;28;20130;-56
2023/07/25 14:09:25;;;;;;;7.38;4.35;;;;;;;;;;5042480;28;20358;-53
2023/07/25 14:11:52;;;;;;;8.15;4.20;;;;;;;;;;5053093;28;20049;-54
2023/07/25 14:14:19;;;;;;;7.18;4.30;;;;;;;;;;5042794;28;20044;-57
2023/07/25 14:16:45;;;;;;;6.70;4.40;;;;;;;;;;5050613;28;20277;-58
2023/07/25 14:19:12;;;;;;;10.48;5.28;;;;;;;;;;5046338;28;20386;-54
2023/07/25 14:21:39;;;;;;;8.02;4.47;;;;;;;;;;5042918;28;20037;-51
2023/07/25 14:24:06;;;;;;;7.75;4.53;;;;;;;;;;5043769;28;20302;-59
2023/07/25 14:26:33;;;;;;;7.72;3.88;;;;;;;;;;5042400;28;20094;-61
2023/07/25 14:29:02;;;;;;;7.65;3.83;;;;;;;;;;5042652;28;20198;-54
2023/07/25 14:31:32;;;;;;;8.73;4.40;;;;;;;;;;5042399;28;20106;-54
2023/07/25 14:33:59;;;;;;;8.23;4.70;;;;;;;;;;5042200;28;20033;-52
2023/07/25 14:36:26;;;;;;;8.63;4.38;;;;;;;;;;5042600;28;20033;-60
2023/07/25 14:38:52;;;;;;;10.98;4.70;;;;;;;;;;5043004;28;20260;-57
2023/07/25 14:41:19;;;;;;;11.00;5.15;;;;;;;;;;5043703;28;20338;-52
2023/07/25 14:43:46;;;;;;;11.25;4.72;;;;;;;;;;5042449;28;20097;-57
2023/07/25 14:46:12;;;;;;;12.18;5.13;;;;;;;;;;5042400;28;20033;-52
2023/07/25 14:48:40;;;;;;;9.48;4.40;;;;;;;;;;5042231;28;20040;-55
2023/07/25 14:51:07;;;;;;;12.35;4.72;;;;;;;;;;5042606;28;20033;-54